Time,TemperatureF,DewpointF,PressureIn,WindDirection,WindDirectionDegrees,WindSpeedMPH,WindSpeedGustMPH,Humidity,HourlyPrecipIn,Conditions,Clouds,dailyrainin,SoftwareType,DateUTC
2013-04-12 00:10:00,71.8,65.0,29.69,NE,38,1.0,-999.0,79,-99.99,,,0.00,weatherlink.com 1.10,2013-04-12 04:10:00,
2013-04-12 00:25:00,71.5,65.0,29.68,ENE,76,0.0,-999.0,79,-99.99,,,0.00,weatherlink.com 1.10,2013-04-12 04:25:00,
2013-04-12 00:40:00,71.3,65.0,29.68,South,175,0.0,-999.0,79,-99.99,,,0.00,weatherlink.com 1.10,2013-04-12 04:40:00,
2013-04-12 00:55:00,71.3,65.0,29.68,ESE,102,0.0,-999.0,79,-99.99,,,0.00,weatherlink.com 1.10,2013-04-12 04:55:00,
2013-04-12 01:11:00,71.3,65.0,29.68,East,99,0.0,-999.0,79,-99.99,,,0.00,weatherlink.com 1.10,2013-04-12 05:11:00,
2013-04-12 01:26:00,71.1,65.0,29.68,East,86,0.0,-999.0,80,-99.99,,,0.00,weatherlink.com 1.10,2013-04-12 05:26:00,
2013-04-12 01:51:00,70.9,65.0,29.66,ESE,117,0.0,-999.0,81,-99.99,,,0.00,weatherlink.com 1.10,2013-04-12 05:51:00,
2013-04-12 02:27:00,71.1,65.0,29.65,SSE,155,0.0,-999.0,80,-99.99,,,0.00,weatherlink.com 1.10,2013-04-12 06:27:00,
2013-04-12 02:40:00,70.9,64.0,29.65,ESE,104,6.0,-999.0,80,-99.99,,,0.00,weatherlink.com 1.10,2013-04-12 06:40:00,
2013-04-12 02:55:00,70.9,64.0,29.64,SSE,160,1.0,-999.0,80,-99.99,,,0.00,weatherlink.com 1.10,2013-04-12 06:55:00,
2013-04-12 03:10:00,70.9,64.0,29.64,ENE,62,0.0,-999.0,80,-99.99,,,0.00,weatherlink.com 1.10,2013-04-12 07:10:00,
2013-04-12 03:25:00,70.9,64.0,29.63,East,80,5.0,-999.0,79,-99.99,,,0.00,weatherlink.com 1.10,2013-04-12 07:25:00,
2013-04-12 03:40:00,70.9,64.0,29.63,SE,141,6.0,-999.0,79,-99.99,,,0.00,weatherlink.com 1.10,2013-04-12 07:40:00,
2013-04-12 03:55:00,70.8,64.0,29.62,East,79,0.0,-999.0,79,-99.99,,,0.00,weatherlink.com 1.10,2013-04-12 07:55:00,
2013-04-12 04:10:00,70.8,64.0,29.61,East,99,0.0,-999.0,79,-99.99,,,0.00,weatherlink.com 1.10,2013-04-12 08:10:00,
2013-04-12 04:25:00,70.8,64.0,29.61,East,95,0.0,-999.0,79,-99.99,,,0.00,weatherlink.com 1.10,2013-04-12 08:25:00,
2013-04-12 04:40:00,70.8,64.0,29.60,East,90,0.0,-999.0,79,-99.99,,,0.00,weatherlink.com 1.10,2013-04-12 08:40:00,
2013-04-12 04:55:00,70.8,64.0,29.61,South,189,0.0,-999.0,78,-99.99,,,0.00,weatherlink.com 1.10,2013-04-12 08:55:00,
2013-04-12 05:10:00,70.8,64.0,29.61,SE,140,0.0,-999.0,79,-99.99,,,0.00,weatherlink.com 1.10,2013-04-12 09:10:00,
2013-04-12 05:25:00,70.4,65.0,29.61,ENE,69,0.0,-999.0,83,-99.99,,,0.02,weatherlink.com 1.10,2013-04-12 09:25:00,
2013-04-12 05:40:00,68.4,65.0,29.62,NE,54,8.0,-999.0,88,-99.99,,,0.07,weatherlink.com 1.10,2013-04-12 09:40:00,
2013-04-12 05:55:00,67.4,65.0,29.61,East,88,3.0,-999.0,90,-99.99,,,0.09,weatherlink.com 1.10,2013-04-12 09:55:00,
2013-04-12 06:10:00,67.1,65.0,29.59,ENE,69,4.0,-999.0,92,-99.99,,,0.11,weatherlink.com 1.10,2013-04-12 10:10:00,
2013-04-12 06:25:00,66.9,65.0,29.59,East,93,0.0,-999.0,93,-99.99,,,0.12,weatherlink.com 1.10,2013-04-12 10:25:00,
2013-04-12 06:40:00,66.8,65.0,29.59,East,93,0.0,-999.0,93,-99.99,,,0.12,weatherlink.com 1.10,2013-04-12 10:40:00,
2013-04-12 06:55:00,66.6,65.0,29.59,SSE,151,0.0,-999.0,94,-99.99,,,0.13,weatherlink.com 1.10,2013-04-12 10:55:00,
2013-04-12 07:10:00,66.4,65.0,29.59,WSW,239,8.0,-999.0,94,-99.99,,,0.21,weatherlink.com 1.10,2013-04-12 11:10:00,
2013-04-12 07:25:00,65.0,63.0,29.62,East,93,0.0,-999.0,94,-99.99,,,0.33,weatherlink.com 1.10,2013-04-12 11:25:00,
2013-04-12 07:40:00,65.2,64.0,29.61,SE,133,0.0,-999.0,95,-99.99,,,0.34,weatherlink.com 1.10,2013-04-12 11:40:00,
2013-04-12 07:55:00,65.3,64.0,29.64,SE,133,0.0,-999.0,96,-99.99,,,0.35,weatherlink.com 1.10,2013-04-12 11:55:00,
2013-04-12 08:10:00,66.0,65.0,29.62,East,95,0.0,-999.0,96,-99.99,,,0.35,weatherlink.com 1.10,2013-04-12 12:10:00,
2013-04-12 08:25:00,66.1,65.0,29.61,ENE,62,0.0,-999.0,96,-99.99,,,0.35,weatherlink.com 1.10,2013-04-12 12:25:00,
2013-04-12 08:40:00,66.6,66.0,29.61,ENE,72,0.0,-999.0,96,-99.99,,,0.36,weatherlink.com 1.10,2013-04-12 12:40:00,
2013-04-12 08:56:00,67.1,66.0,29.61,East,79,3.0,-999.0,96,-99.99,,,0.36,weatherlink.com 1.10,2013-04-12 12:56:00,
2013-04-12 09:10:00,67.3,66.0,29.60,ENE,75,0.0,-999.0,96,-99.99,,,0.36,weatherlink.com 1.10,2013-04-12 13:10:00,
2013-04-12 09:26:00,67.4,66.0,29.60,WNW,282,0.0,-999.0,96,-99.99,,,0.36,weatherlink.com 1.10,2013-04-12 13:26:00,
2013-04-12 09:40:00,67.8,66.0,29.60,NE,49,0.0,-999.0,95,-99.99,,,0.36,weatherlink.com 1.10,2013-04-12 13:40:00,
2013-04-12 09:55:00,67.9,67.0,29.59,ENE,71,2.0,-999.0,95,-99.99,,,0.36,weatherlink.com 1.10,2013-04-12 13:55:00,
2013-04-12 10:10:00,68.4,67.0,29.59,ENE,73,0.0,-999.0,94,-99.99,,,0.36,weatherlink.com 1.10,2013-04-12 14:10:00,
2013-04-12 10:26:00,69.3,67.0,29.59,SE,134,0.0,-999.0,92,-99.99,,,0.36,weatherlink.com 1.10,2013-04-12 14:26:00,
2013-04-12 10:41:00,70.3,67.0,29.60,SSE,157,0.0,-999.0,89,-99.99,,,0.36,weatherlink.com 1.10,2013-04-12 14:41:00,
2013-04-12 10:56:00,71.1,67.0,29.60,East,85,1.0,-999.0,86,-99.99,,,0.36,weatherlink.com 1.10,2013-04-12 14:56:00,
2013-04-12 11:11:00,71.8,68.0,29.59,WSW,247,2.0,-999.0,86,-99.99,,,0.36,weatherlink.com 1.10,2013-04-12 15:11:00,
2013-04-12 11:41:00,73.9,67.0,29.59,East,99,0.0,-999.0,79,-99.99,,,0.36,weatherlink.com 1.10,2013-04-12 15:41:00,
2013-04-12 12:11:00,75.1,66.0,29.58,SSW,208,3.0,-999.0,74,-99.99,,,0.36,weatherlink.com 1.10,2013-04-12 16:11:00,
2013-04-12 12:56:00,68.9,66.0,29.57,SE,133,0.0,-999.0,91,-99.99,,,0.56,weatherlink.com 1.10,2013-04-12 16:56:00,
2013-04-12 13:26:00,69.9,68.0,29.57,ENE,66,0.0,-999.0,94,-99.99,,,0.56,weatherlink.com 1.10,2013-04-12 17:26:00,
2013-04-12 15:26:00,79.2,67.0,29.52,SE,127,0.0,-999.0,67,-99.99,,,0.56,weatherlink.com 1.10,2013-04-12 19:26:00,
2013-04-12 15:41:00,79.8,64.0,29.51,South,178,12.0,-999.0,58,-99.99,,,0.56,weatherlink.com 1.10,2013-04-12 19:41:00,
2013-04-12 15:56:00,79.4,64.0,29.50,SSW,206,2.0,-999.0,60,-99.99,,,0.56,weatherlink.com 1.10,2013-04-12 19:56:00,
2013-04-12 16:11:00,79.8,64.0,29.50,South,189,0.0,-999.0,58,-99.99,,,0.56,weatherlink.com 1.10,2013-04-12 20:11:00,
2013-04-12 16:26:00,79.9,62.0,29.49,SE,137,1.0,-999.0,54,-99.99,,,0.56,weatherlink.com 1.10,2013-04-12 20:26:00,
2013-04-12 16:41:00,80.7,62.0,29.49,SSW,193,2.0,-999.0,54,-99.99,,,0.56,weatherlink.com 1.10,2013-04-12 20:41:00,
2013-04-12 16:56:00,81.8,63.0,29.48,SE,127,0.0,-999.0,54,-99.99,,,0.56,weatherlink.com 1.10,2013-04-12 20:56:00,
2013-04-12 17:11:00,81.8,61.0,29.47,South,171,2.0,-999.0,50,-99.99,,,0.56,weatherlink.com 1.10,2013-04-12 21:11:00,
2013-04-12 17:26:00,81.4,60.0,29.48,SSW,203,5.0,-999.0,49,-99.99,,,0.56,weatherlink.com 1.10,2013-04-12 21:26:00,
2013-04-12 17:41:00,81.4,59.0,29.48,SE,133,0.0,-999.0,47,-99.99,,,0.56,weatherlink.com 1.10,2013-04-12 21:41:00,
2013-04-12 17:56:00,81.6,59.0,29.48,SW,217,3.0,-999.0,46,-99.99,,,0.56,weatherlink.com 1.10,2013-04-12 21:56:00,
2013-04-12 18:26:00,81.4,58.0,29.48,SE,134,1.0,-999.0,45,-99.99,,,0.56,weatherlink.com 1.10,2013-04-12 22:26:00,
2013-04-12 18:41:00,80.9,58.0,29.48,SSE,161,0.0,-999.0,45,-99.99,,,0.56,weatherlink.com 1.10,2013-04-12 22:41:00,
2013-04-12 18:56:00,80.1,57.0,29.48,SSE,152,0.0,-999.0,46,-99.99,,,0.56,weatherlink.com 1.10,2013-04-12 22:56:00,
2013-04-12 19:11:00,79.0,57.0,29.49,South,175,0.0,-999.0,47,-99.99,,,0.56,weatherlink.com 1.10,2013-04-12 23:11:00,
2013-04-12 19:26:00,78.5,58.0,29.49,ESE,120,0.0,-999.0,49,-99.99,,,0.56,weatherlink.com 1.10,2013-04-12 23:26:00,
2013-04-12 19:41:00,77.6,58.0,29.50,SE,140,0.0,-999.0,51,-99.99,,,0.56,weatherlink.com 1.10,2013-04-12 23:41:00,
2013-04-12 19:56:00,77.0,58.0,29.51,SSE,152,0.0,-999.0,52,-99.99,,,0.56,weatherlink.com 1.10,2013-04-12 23:56:00,
2013-04-12 20:11:00,75.4,57.0,29.52,SE,126,0.0,-999.0,53,-99.99,,,0.56,weatherlink.com 1.10,2013-04-13 00:11:00,
2013-04-12 20:26:00,74.9,57.0,29.52,SE,124,0.0,-999.0,54,-99.99,,,0.56,weatherlink.com 1.10,2013-04-13 00:26:00,
2013-04-12 20:41:00,74.6,56.0,29.52,SE,137,0.0,-999.0,53,-99.99,,,0.56,weatherlink.com 1.10,2013-04-13 00:41:00,
2013-04-12 20:56:00,74.4,56.0,29.53,SE,138,0.0,-999.0,53,-99.99,,,0.56,weatherlink.com 1.10,2013-04-13 00:56:00,
2013-04-12 21:11:00,74.0,56.0,29.53,South,171,0.0,-999.0,54,-99.99,,,0.56,weatherlink.com 1.10,2013-04-13 01:11:00,
2013-04-12 21:26:00,73.2,56.0,29.54,SE,124,0.0,-999.0,55,-99.99,,,0.56,weatherlink.com 1.10,2013-04-13 01:26:00,
2013-04-12 21:41:00,72.7,56.0,29.55,South,174,0.0,-999.0,57,-99.99,,,0.56,weatherlink.com 1.10,2013-04-13 01:41:00,
2013-04-12 21:56:00,71.8,55.0,29.56,South,174,0.0,-999.0,56,-99.99,,,0.56,weatherlink.com 1.10,2013-04-13 01:56:00,
2013-04-12 22:11:00,71.3,56.0,29.57,South,174,0.0,-999.0,58,-99.99,,,0.56,weatherlink.com 1.10,2013-04-13 02:11:00,
2013-04-12 22:26:00,70.1,56.0,29.57,South,174,0.0,-999.0,61,-99.99,,,0.56,weatherlink.com 1.10,2013-04-13 02:26:00,
2013-04-12 22:41:00,68.6,56.0,29.58,South,174,0.0,-999.0,65,-99.99,,,0.56,weatherlink.com 1.10,2013-04-13 02:41:00,
2013-04-12 22:56:00,66.4,56.0,29.59,South,174,0.0,-999.0,70,-99.99,,,0.56,weatherlink.com 1.10,2013-04-13 02:56:00,
2013-04-12 23:11:00,66.3,50.0,29.60,WSW,237,0.0,-999.0,56,-99.99,,,0.56,weatherlink.com 1.10,2013-04-13 03:11:00,
2013-04-12 23:27:00,66.1,48.0,29.61,WSW,237,0.0,-999.0,52,-99.99,,,0.56,weatherlink.com 1.10,2013-04-13 03:27:00,
2013-04-12 23:41:00,65.8,45.0,29.61,SW,224,0.0,-999.0,47,-99.99,,,0.56,weatherlink.com 1.10,2013-04-13 03:41:00,
2013-04-12 23:56:00,65.6,45.0,29.63,SW,223,0.0,-999.0,47,-99.99,,,0.56,weatherlink.com 1.10,2013-04-13 03:56:00,